Time;durP1;ratioP1;P1;durP2;ratioP2;P2;SDS_P1;SDS_P2;PMS_P1;PMS_P2;Temp;Humidity;BMP_temperature;BMP_pressure;BME280_temperature;BME280_humidity;BME280_pressure;Samples;Min_cycle;Max_cycle;Signal;HPM_P1;HPM_P2
2024/01/02 00:01:10;;;;;;;0.10;0.10;;;;;;;;;;5093078;28;20063;-78
2024/01/02 00:03:36;;;;;;;0.10;0.10;;;;;;;;;;5088463;28;20110;-78
2024/01/02 00:06:03;;;;;;;0.10;0.10;;;;;;;;;;5083217;28;20106;-82
2024/01/02 00:08:30;;;;;;;0.10;0.10;;;;;;;;;;5088203;28;20434;-79
2024/01/02 00:10:56;;;;;;;0.10;0.10;;;;;;;;;;5088934;28;20063;-78
2024/01/02 00:13:22;;;;;;;0.20;0.20;;;;;;;;;;5088031;28;20057;-79
2024/01/02 00:15:49;;;;;;;0.10;0.10;;;;;;;;;;5086759;28;20057;-79
2024/01/02 00:18:15;;;;;;;0.10;0.10;;;;;;;;;;5073855;28;20150;-79
2024/01/02 00:20:42;;;;;;;0.10;0.10;;;;;;;;;;5087567;28;20098;-80
2024/01/02 00:23:08;;;;;;;0.13;0.13;;;;;;;;;;5088368;28;20606;-79
2024/01/02 00:25:35;;;;;;;0.10;0.10;;;;;;;;;;5069242;28;20059;-79
2024/01/02 00:28:02;;;;;;;0.10;0.10;;;;;;;;;;5088716;28;20069;-79
2024/01/02 00:30:31;;;;;;;0.10;0.10;;;;;;;;;;5087902;28;20514;-79
2024/01/02 00:32:58;;;;;;;0.10;0.10;;;;;;;;;;5087130;28;20060;-78
2024/01/02 00:35:25;;;;;;;1.40;0.25;;;;;;;;;;5089556;28;20056;-81
2024/01/02 00:37:51;;;;;;;0.10;0.10;;;;;;;;;;5069688;28;20582;-79
2024/01/02 00:40:18;;;;;;;0.10;0.10;;;;;;;;;;5068870;28;20060;-79
2024/01/02 00:42:45;;;;;;;0.10;0.10;;;;;;;;;;5088439;28;20507;-78
2024/01/02 00:45:11;;;;;;;0.10;0.10;;;;;;;;;;5087662;28;20048;-78
2024/01/02 00:47:38;;;;;;;0.10;0.10;;;;;;;;;;5086044;28;20060;-81
2024/01/02 00:50:04;;;;;;;0.10;0.10;;;;;;;;;;5087663;28;20052;-78
2024/01/02 00:52:31;;;;;;;0.10;0.10;;;;;;;;;;5088643;28;20632;-79
2024/01/02 00:54:57;;;;;;;0.10;0.10;;;;;;;;;;5085079;28;20559;-79
2024/01/02 00:57:25;;;;;;;0.10;0.10;;;;;;;;;;5085642;28;20048;-79
2024/01/02 00:59:52;;;;;;;3.30;2.47;;;;;;;;;;5060176;28;20131;-79
2024/01/02 01:02:18;;;;;;;0.10;0.10;;;;;;;;;;5087025;28;20173;-78
2024/01/02 01:04:45;;;;;;;0.13;0.13;;;;;;;;;;5087145;28;20048;-79
2024/01/02 01:07:12;;;;;;;0.10;0.10;;;;;;;;;;5086179;28;20110;-78
2024/01/02 01:09:38;;;;;;;0.10;0.10;;;;;;;;;;5092883;28;20048;-78
2024/01/02 01:12:05;;;;;;;0.10;0.10;;;;;;;;;;5087125;28;20061;-78
2024/01/02 01:14:32;;;;;;;0.10;0.10;;;;;;;;;;5089846;28;20092;-80
2024/01/02 01:16:59;;;;;;;0.10;0.10;;;;;;;;;;5066783;28;20049;-78
2024/01/02 01:19:25;;;;;;;0.10;0.10;;;;;;;;;;5087015;28;20839;-78
2024/01/02 01:21:52;;;;;;;0.10;0.10;;;;;;;;;;5086445;28;20118;-80
2024/01/02 01:24:18;;;;;;;0.10;0.10;;;;;;;;;;5086715;28;20049;-79
2024/01/02 01:26:45;;;;;;;0.10;0.10;;;;;;;;;;5092553;28;20059;-78
2024/01/02 01:29:12;;;;;;;0.10;0.10;;;;;;;;;;5086474;28;20060;-78
2024/01/02 01:31:38;;;;;;;0.10;0.10;;;;;;;;;;5069655;28;20052;-81
2024/01/02 01:34:05;;;;;;;0.10;0.10;;;;;;;;;;5087657;28;20052;-79
2024/01/02 01:36:31;;;;;;;0.10;0.10;;;;;;;;;;5086458;28;20052;-78
2024/01/02 01:38:58;;;;;;;0.10;0.10;;;;;;;;;;5084506;28;20048;-78
2024/01/02 01:41:24;;;;;;;0.10;0.10;;;;;;;;;;5069264;28;20087;-78
2024/01/02 01:43:50;;;;;;;0.20;0.20;;;;;;;;;;5087335;28;20173;-77
2024/01/02 01:46:17;;;;;;;0.10;0.10;;;;;;;;;;5087083;28;20053;-77
2024/01/02 01:48:44;;;;;;;0.10;0.10;;;;;;;;;;5087198;28;20083;-81
2024/01/02 01:51:11;;;;;;;0.10;0.10;;;;;;;;;;5087475;28;20064;-77
2024/01/02 01:53:38;;;;;;;0.10;0.10;;;;;;;;;;5070535;28;20081;-77
2024/01/02 01:56:05;;;;;;;0.10;0.10;;;;;;;;;;5085822;28;20114;-78
2024/01/02 01:58:31;;;;;;;0.10;0.10;;;;;;;;;;5087429;28;20529;-77
2024/01/02 02:00:58;;;;;;;0.10;0.10;;;;;;;;;;5092932;28;20060;-77
2024/01/02 02:03:26;;;;;;;0.10;0.10;;;;;;;;;;5086858;28;20605;-79
2024/01/02 02:05:53;;;;;;;0.10;0.10;;;;;;;;;;5068668;28;20044;-77
2024/01/02 02:08:19;;;;;;;0.10;0.10;;;;;;;;;;5085817;28;20052;-78
2024/01/02 02:10:46;;;;;;;0.10;0.10;;;;;;;;;;5086084;28;20136;-77
2024/01/02 02:13:13;;;;;;;0.10;0.10;;;;;;;;;;5086496;28;20110;-77
2024/01/02 02:15:41;;;;;;;0.10;0.10;;;;;;;;;;5086194;28;20115;-80
2024/01/02 02:18:08;;;;;;;0.10;0.10;;;;;;;;;;5083360;28;20064;-78
2024/01/02 02:20:36;;;;;;;0.10;0.10;;;;;;;;;;5086418;28;20056;-79
2024/01/02 02:23:02;;;;;;;0.10;0.10;;;;;;;;;;5086679;28;20135;-78
2024/01/02 02:25:29;;;;;;;0.10;0.10;;;;;;;;;;5085060;28;20142;-78
2024/01/02 02:27:55;;;;;;;0.10;0.10;;;;;;;;;;5084338;28;20071;-77
2024/01/02 02:30:22;;;;;;;0.10;0.10;;;;;;;;;;5083170;28;20072;-79
2024/01/02 02:32:48;;;;;;;0.10;0.10;;;;;;;;;;5086493;28;20989;-78
2024/01/02 02:35:15;;;;;;;0.10;0.10;;;;;;;;;;5086699;28;20059;-78
2024/01/02 02:37:41;;;;;;;0.10;0.10;;;;;;;;;;5086475;28;20471;-78
2024/01/02 02:40:09;;;;;;;0.10;0.10;;;;;;;;;;5068660;28;20130;-77
2024/01/02 02:42:35;;;;;;;0.20;0.20;;;;;;;;;;5090101;28;20492;-78
2024/01/02 02:45:02;;;;;;;0.10;0.10;;;;;;;;;;5089622;28;20040;-77
2024/01/02 02:47:29;;;;;;;0.10;0.10;;;;;;;;;;5090482;28;20091;-80
2024/01/02 02:49:55;;;;;;;0.10;0.10;;;;;;;;;;5091058;28;20477;-78
2024/01/02 02:52:23;;;;;;;0.10;0.10;;;;;;;;;;5090971;28;20055;-77
2024/01/02 02:54:49;;;;;;;0.10;0.10;;;;;;;;;;5071597;28;20084;-81
2024/01/02 02:57:16;;;;;;;0.10;0.10;;;;;;;;;;5088185;28;20052;-78
2024/01/02 02:59:42;;;;;;;0.10;0.10;;;;;;;;;;5089676;28;20487;-78
2024/01/02 03:02:09;;;;;;;0.10;0.10;;;;;;;;;;5090241;28;20156;-78
2024/01/02 03:04:35;;;;;;;0.10;0.10;;;;;;;;;;5089398;28;20103;-77
2024/01/02 03:07:02;;;;;;;0.10;0.10;;;;;;;;;;5090245;28;20147;-77
2024/01/02 03:09:29;;;;;;;0.10;0.10;;;;;;;;;;5090570;28;20059;-77
2024/01/02 03:11:55;;;;;;;0.10;0.10;;;;;;;;;;5089326;28;20142;-78
2024/01/02 03:14:21;;;;;;;0.10;0.10;;;;;;;;;;5089086;28;20056;-77
2024/01/02 03:16:48;;;;;;;0.10;0.10;;;;;;;;;;5088262;28;20061;-77
2024/01/02 03:19:14;;;;;;;0.10;0.10;;;;;;;;;;5088924;28;20615;-78
2024/01/02 03:21:41;;;;;;;0.10;0.10;;;;;;;;;;5088530;28;20056;-79
2024/01/02 03:24:07;;;;;;;0.10;0.10;;;;;;;;;;5091300;28;20537;-78
2024/01/02 03:26:34;;;;;;;0.10;0.10;;;;;;;;;;5089467;28;20582;-78
2024/01/02 03:29:00;;;;;;;0.10;0.10;;;;;;;;;;5086578;28;20063;-80
2024/01/02 03:31:26;;;;;;;0.10;0.10;;;;;;;;;;5089768;28;20060;-78
2024/01/02 03:33:53;;;;;;;0.10;0.10;;;;;;;;;;5088782;28;20130;-78
2024/01/02 03:36:20;;;;;;;0.10;0.10;;;;;;;;;;5088683;28;20136;-78
2024/01/02 03:38:47;;;;;;;0.10;0.10;;;;;;;;;;5087790;28;20048;-78
2024/01/02 03:41:13;;;;;;;0.10;0.10;;;;;;;;;;5088677;28;20178;-78
2024/01/02 03:43:40;;;;;;;0.10;0.10;;;;;;;;;;5089288;28;20084;-78
2024/01/02 03:46:07;;;;;;;0.10;0.10;;;;;;;;;;5087316;28;20583;-77
2024/01/02 03:48:33;;;;;;;0.10;0.10;;;;;;;;;;5089377;28;20129;-77
2024/01/02 03:51:02;;;;;;;0.10;0.10;;;;;;;;;;5088867;28;20128;-78
2024/01/02 03:53:29;;;;;;;0.10;0.10;;;;;;;;;;5088243;28;20060;-79
2024/01/02 03:55:58;;;;;;;0.10;0.10;;;;;;;;;;5087715;28;20052;-78
2024/01/02 03:58:25;;;;;;;0.10;0.10;;;;;;;;;;5088426;28;20611;-80
2024/01/02 04:00:53;;;;;;;0.38;0.38;;;;;;;;;;5088503;28;20136;-79
2024/01/02 04:03:20;;;;;;;0.10;0.10;;;;;;;;;;5088624;28;20052;-81
2024/01/02 04:05:46;;;;;;;0.10;0.10;;;;;;;;;;5088232;28;20053;-82
2024/01/02 04:08:13;;;;;;;0.10;0.10;;;;;;;;;;5088846;28;20060;-78
2024/01/02 04:10:40;;;;;;;0.10;0.10;;;;;;;;;;5087946;28;20087;-80
2024/01/02 04:13:06;;;;;;;0.10;0.10;;;;;;;;;;5087984;28;20053;-79
2024/01/02 04:15:33;;;;;;;0.10;0.10;;;;;;;;;;5092426;28;20139;-78
2024/01/02 04:18:00;;;;;;;0.10;0.10;;;;;;;;;;5069098;28;20608;-78
2024/01/02 04:20:26;;;;;;;0.10;0.10;;;;;;;;;;5069295;28;20053;-80
2024/01/02 04:22:54;;;;;;;0.10;0.10;;;;;;;;;;5087735;28;20045;-78
2024/01/02 04:25:21;;;;;;;0.10;0.10;;;;;;;;;;5086070;28;20150;-79
2024/01/02 04:27:49;;;;;;;0.10;0.10;;;;;;;;;;5085376;28;20052;-79
2024/01/02 04:30:15;;;;;;;0.10;0.10;;;;;;;;;;5083878;28;20126;-79
2024/01/02 04:32:42;;;;;;;0.10;0.10;;;;;;;;;;5091322;28;20092;-80
2024/01/02 04:35:08;;;;;;;0.10;0.10;;;;;;;;;;5085982;28;20057;-79
2024/01/02 04:37:35;;;;;;;0.10;0.10;;;;;;;;;;5069831;28;20048;-79
2024/01/02 04:40:01;;;;;;;0.10;0.10;;;;;;;;;;5087926;28;20056;-79
2024/01/02 04:42:27;;;;;;;0.10;0.10;;;;;;;;;;5086355;28;20048;-79
2024/01/02 04:44:54;;;;;;;0.10;0.10;;;;;;;;;;5068397;28;20502;-81
2024/01/02 04:47:20;;;;;;;0.10;0.10;;;;;;;;;;5088677;28;20048;-81
2024/01/02 04:49:46;;;;;;;0.10;0.10;;;;;;;;;;5087699;28;20053;-79
2024/01/02 04:52:13;;;;;;;0.10;0.10;;;;;;;;;;5087739;28;20462;-79
2024/01/02 04:54:39;;;;;;;0.10;0.10;;;;;;;;;;5088818;28;20052;-79
2024/01/02 04:57:06;;;;;;;0.10;0.10;;;;;;;;;;5071038;28;20106;-80
2024/01/02 04:59:35;;;;;;;0.10;0.10;;;;;;;;;;5088669;28;20102;-79
2024/01/02 05:02:01;;;;;;;0.10;0.10;;;;;;;;;;5088115;28;20056;-79
2024/01/02 05:04:29;;;;;;;0.10;0.10;;;;;;;;;;5087685;28;20041;-79
2024/01/02 05:06:55;;;;;;;0.10;0.10;;;;;;;;;;5086944;28;20062;-81
2024/01/02 05:09:21;;;;;;;0.10;0.10;;;;;;;;;;5088525;28;20596;-81
2024/01/02 05:11:48;;;;;;;0.10;0.10;;;;;;;;;;5088625;28;20052;-79
2024/01/02 05:14:15;;;;;;;0.10;0.10;;;;;;;;;;5088687;28;20217;-78
2024/01/02 05:16:42;;;;;;;0.10;0.10;;;;;;;;;;5088096;28;20058;-83
2024/01/02 05:19:08;;;;;;;0.10;0.10;;;;;;;;;;5088711;28;20052;-82
2024/01/02 05:21:35;;;;;;;0.10;0.10;;;;;;;;;;5087161;28;20509;-79
2024/01/02 05:24:02;;;;;;;0.10;0.10;;;;;;;;;;5088694;28;20066;-79
2024/01/02 05:26:28;;;;;;;0.63;0.63;;;;;;;;;;5069074;28;20138;-80
2024/01/02 05:28:55;;;;;;;0.10;0.10;;;;;;;;;;5087763;28;20048;-80
2024/01/02 05:31:21;;;;;;;0.10;0.10;;;;;;;;;;5087365;28;20059;-79
2024/01/02 05:33:48;;;;;;;0.10;0.10;;;;;;;;;;5079723;28;20106;-80
2024/01/02 05:36:14;;;;;;;0.10;0.10;;;;;;;;;;5086131;28;20059;-79
2024/01/02 05:38:41;;;;;;;0.10;0.10;;;;;;;;;;5087047;28;20053;-79
2024/01/02 05:41:07;;;;;;;0.10;0.10;;;;;;;;;;5087571;28;20056;-79
2024/01/02 05:43:34;;;;;;;0.10;0.10;;;;;;;;;;5156921;22;20176;-80
2024/01/02 05:46:00;;;;;;;0.10;0.10;;;;;;;;;;5094265;28;20096;-80
2024/01/02 05:48:27;;;;;;;0.10;0.10;;;;;;;;;;5085030;28;20147;-80
2024/01/02 05:50:53;;;;;;;0.10;0.10;;;;;;;;;;5091495;28;20063;-80
2024/01/02 05:53:20;;;;;;;0.22;0.22;;;;;;;;;;5091759;28;20095;-80
2024/01/02 05:55:46;;;;;;;0.10;0.10;;;;;;;;;;5089184;28;20052;-80
2024/01/02 05:58:13;;;;;;;0.10;0.10;;;;;;;;;;5092194;28;20048;-81
2024/01/02 06:00:39;;;;;;;0.10;0.10;;;;;;;;;;5090067;28;20056;-80
2024/01/02 06:03:06;;;;;;;0.10;0.10;;;;;;;;;;5089688;28;20182;-80
2024/01/02 06:05:33;;;;;;;0.10;0.10;;;;;;;;;;5083028;28;20129;-80
2024/01/02 06:07:59;;;;;;;0.10;0.10;;;;;;;;;;5089651;28;20981;-80
2024/01/02 06:10:26;;;;;;;0.10;0.10;;;;;;;;;;5090630;28;20065;-80
2024/01/02 06:12:52;;;;;;;0.15;0.15;;;;;;;;;;5090702;28;20052;-80
2024/01/02 06:15:22;;;;;;;0.10;0.10;;;;;;;;;;5088363;28;20165;-80
2024/01/02 06:17:48;;;;;;;0.10;0.10;;;;;;;;;;5089839;28;20045;-80
2024/01/02 06:20:15;;;;;;;0.10;0.10;;;;;;;;;;5091919;28;20081;-80
2024/01/02 06:22:42;;;;;;;0.40;0.40;;;;;;;;;;5093783;28;20052;-80
2024/01/02 06:25:08;;;;;;;0.10;0.10;;;;;;;;;;5094161;28;20052;-80
2024/01/02 06:27:35;;;;;;;0.10;0.10;;;;;;;;;;5094020;28;20065;-80
2024/01/02 06:30:05;;;;;;;0.10;0.10;;;;;;;;;;5092222;28;20080;-80
2024/01/02 06:32:33;;;;;;;0.10;0.10;;;;;;;;;;5094119;28;20900;-80
2024/01/02 06:35:00;;;;;;;0.10;0.10;;;;;;;;;;5091660;28;20177;-79
2024/01/02 06:37:28;;;;;;;0.10;0.10;;;;;;;;;;5094714;28;20383;-80
2024/01/02 06:39:54;;;;;;;0.10;0.10;;;;;;;;;;5092666;28;20056;-79
2024/01/02 06:42:20;;;;;;;0.10;0.10;;;;;;;;;;5090636;28;20566;-79
2024/01/02 06:44:47;;;;;;;0.10;0.10;;;;;;;;;;5088765;28;20121;-79
2024/01/02 06:47:14;;;;;;;0.10;0.10;;;;;;;;;;5092422;28;20064;-79
2024/01/02 06:49:40;;;;;;;0.85;0.43;;;;;;;;;;5094375;28;20062;-79
2024/01/02 06:52:06;;;;;;;0.10;0.10;;;;;;;;;;5090386;28;20909;-80
2024/01/02 06:54:33;;;;;;;0.10;0.10;;;;;;;;;;5090537;28;20508;-80
2024/01/02 06:57:00;;;;;;;0.10;0.10;;;;;;;;;;5089875;28;20067;-79
2024/01/02 06:59:26;;;;;;;0.10;0.10;;;;;;;;;;5090422;28;20051;-79
2024/01/02 07:01:53;;;;;;;0.10;0.10;;;;;;;;;;5087515;28;20088;-79
2024/01/02 07:04:19;;;;;;;0.10;0.10;;;;;;;;;;5091171;28;20138;-79
2024/01/02 07:06:45;;;;;;;0.10;0.10;;;;;;;;;;5091574;28;20048;-79
2024/01/02 07:09:12;;;;;;;0.10;0.10;;;;;;;;;;5087035;28;20056;-79
2024/01/02 07:11:38;;;;;;;0.10;0.10;;;;;;;;;;5090099;28;20056;-79
2024/01/02 07:14:07;;;;;;;0.10;0.10;;;;;;;;;;5091516;28;20073;-79
2024/01/02 07:16:34;;;;;;;0.10;0.10;;;;;;;;;;5089165;28;20056;-79
2024/01/02 07:19:00;;;;;;;0.10;0.10;;;;;;;;;;5089622;28;20052;-79
2024/01/02 07:21:27;;;;;;;0.10;0.10;;;;;;;;;;5090381;28;20052;-80
2024/01/02 07:23:53;;;;;;;0.20;0.20;;;;;;;;;;5093900;28;20036;-80
2024/01/02 07:26:20;;;;;;;0.10;0.10;;;;;;;;;;5088823;27;20056;-82
2024/01/02 07:28:46;;;;;;;0.10;0.10;;;;;;;;;;5086954;28;20108;-81
2024/01/02 07:31:13;;;;;;;0.10;0.10;;;;;;;;;;5090016;28;20052;-81
2024/01/02 07:33:40;;;;;;;12.95;2.80;;;;;;;;;;5093278;28;20106;-82
2024/01/02 07:36:06;;;;;;;0.10;0.10;;;;;;;;;;5091603;28;20493;-82
2024/01/02 07:38:33;;;;;;;0.10;0.10;;;;;;;;;;5082595;28;20052;-81
2024/01/02 07:40:59;;;;;;;0.10;0.10;;;;;;;;;;5093371;28;20073;-82
2024/01/02 07:43:26;;;;;;;0.20;0.20;;;;;;;;;;5089541;28;20536;-81
2024/01/02 07:45:52;;;;;;;0.10;0.10;;;;;;;;;;5091450;28;20563;-81
2024/01/02 07:48:19;;;;;;;0.10;0.10;;;;;;;;;;5092696;28;20060;-81
2024/01/02 07:50:45;;;;;;;0.10;0.10;;;;;;;;;;5094492;28;20049;-81
2024/01/02 07:53:16;;;;;;;0.10;0.10;;;;;;;;;;5091391;28;20053;-82
2024/01/02 07:55:48;;;;;;;0.10;0.10;;;;;;;;;;5077032;28;20053;-81
2024/01/02 07:58:17;;;;;;;0.10;0.10;;;;;;;;;;5103747;27;20057;-81
2024/01/02 08:00:43;;;;;;;0.32;0.22;;;;;;;;;;5091316;28;20080;-83
2024/01/02 08:03:10;;;;;;;0.10;0.10;;;;;;;;;;5091559;28;20049;-82
2024/01/02 08:05:36;;;;;;;0.10;0.10;;;;;;;;;;5089976;28;20049;-81
2024/01/02 08:08:03;;;;;;;0.10;0.10;;;;;;;;;;5089713;28;20057;-82
2024/01/02 08:10:30;;;;;;;0.10;0.10;;;;;;;;;;5086467;28;20114;-81
2024/01/02 08:12:57;;;;;;;0.90;0.85;;;;;;;;;;5092286;28;20057;-82
2024/01/02 08:15:24;;;;;;;0.10;0.10;;;;;;;;;;5092682;28;20057;-81
2024/01/02 08:18:08;;;;;;;0.10;0.10;;;;;;;;;;5089593;28;20052;-81
2024/01/02 08:20:36;;;;;;;0.20;0.20;;;;;;;;;;5093059;28;20028;-81
2024/01/02 08:23:03;;;;;;;0.10;0.10;;;;;;;;;;5091502;28;20052;-82
2024/01/02 08:25:30;;;;;;;0.25;0.25;;;;;;;;;;5091349;28;20056;-81
2024/01/02 08:27:59;;;;;;;0.10;0.10;;;;;;;;;;5091162;28;20056;-82
2024/01/02 08:30:26;;;;;;;0.13;0.13;;;;;;;;;;5091945;28;20727;-83
2024/01/02 08:32:52;;;;;;;0.10;0.10;;;;;;;;;;5091415;28;20147;-82
2024/01/02 08:35:19;;;;;;;0.10;0.10;;;;;;;;;;5088204;28;20132;-83
2024/01/02 08:37:49;;;;;;;0.10;0.10;;;;;;;;;;5087692;28;20097;-81
2024/01/02 08:40:15;;;;;;;0.10;0.10;;;;;;;;;;5087004;28;20041;-81
2024/01/02 08:42:42;;;;;;;0.10;0.10;;;;;;;;;;5089574;28;20076;-81
2024/01/02 08:45:12;;;;;;;0.17;0.17;;;;;;;;;;5091868;28;20059;-81
2024/01/02 08:47:38;;;;;;;0.10;0.10;;;;;;;;;;5091080;28;20048;-81
2024/01/02 08:50:06;;;;;;;0.10;0.10;;;;;;;;;;5089635;28;20192;-81
2024/01/02 08:52:35;;;;;;;0.10;0.10;;;;;;;;;;5089145;28;21472;-80
2024/01/02 08:55:02;;;;;;;0.10;0.10;;;;;;;;;;5091265;28;20052;-81
2024/01/02 08:57:29;;;;;;;0.10;0.10;;;;;;;;;;5089112;28;20150;-81
2024/01/02 08:59:55;;;;;;;0.50;0.50;;;;;;;;;;5089976;28;20041;-81
2024/01/02 09:02:22;;;;;;;0.10;0.10;;;;;;;;;;5088651;28;20049;-81
2024/01/02 09:04:48;;;;;;;0.10;0.10;;;;;;;;;;5094065;28;20114;-81
2024/01/02 09:07:15;;;;;;;0.10;0.10;;;;;;;;;;5087474;28;20052;-81
2024/01/02 09:09:41;;;;;;;0.10;0.10;;;;;;;;;;5091142;28;20044;-80
2024/01/02 09:12:08;;;;;;;0.10;0.10;;;;;;;;;;5091596;28;20060;-81
2024/01/02 09:14:37;;;;;;;0.10;0.10;;;;;;;;;;5091126;28;20036;-81
2024/01/02 09:17:04;;;;;;;0.10;0.10;;;;;;;;;;5091147;28;20197;-81
2024/01/02 09:19:30;;;;;;;0.10;0.10;;;;;;;;;;5090614;28;20055;-80
2024/01/02 09:21:57;;;;;;;0.65;0.65;;;;;;;;;;5090070;28;20414;-82
2024/01/02 09:24:24;;;;;;;0.10;0.10;;;;;;;;;;5092676;28;20064;-81
2024/01/02 09:26:51;;;;;;;0.10;0.10;;;;;;;;;;5090805;28;20053;-81
2024/01/02 09:29:21;;;;;;;0.68;0.68;;;;;;;;;;5092434;28;20110;-82
2024/01/02 09:31:47;;;;;;;0.47;0.47;;;;;;;;;;5089680;28;20106;-81
2024/01/02 09:34:14;;;;;;;1.02;1.02;;;;;;;;;;5082206;28;20124;-81
2024/01/02 09:36:41;;;;;;;0.10;0.10;;;;;;;;;;5088632;28;20063;-81
2024/01/02 09:39:08;;;;;;;0.10;0.10;;;;;;;;;;5092873;28;20529;-82
2024/01/02 09:41:41;;;;;;;0.15;0.15;;;;;;;;;;5082714;28;20143;-82
2024/01/02 09:44:16;;;;;;;0.10;0.10;;;;;;;;;;5104851;27;20064;-80
2024/01/02 09:46:47;;;;;;;0.10;0.10;;;;;;;;;;5085680;28;20135;-81
2024/01/02 09:49:34;;;;;;;0.10;0.10;;;;;;;;;;5090108;28;20059;-81
2024/01/02 09:52:19;;;;;;;0.10;0.10;;;;;;;;;;5088732;28;20140;-80
2024/01/02 09:54:46;;;;;;;0.20;0.20;;;;;;;;;;5093831;28;20095;-81
2024/01/02 09:57:34;;;;;;;0.30;0.30;;;;;;;;;;5099314;27;20087;-81
2024/01/02 10:00:21;;;;;;;0.10;0.10;;;;;;;;;;5079607;28;20856;-81
2024/01/02 10:03:03;;;;;;;0.10;0.10;;;;;;;;;;5081843;28;20604;-81
2024/01/02 10:05:45;;;;;;;0.10;0.10;;;;;;;;;;5091272;28;20560;-81
2024/01/02 10:08:20;;;;;;;0.10;0.10;;;;;;;;;;5086123;28;20523;-81
2024/01/02 10:11:04;;;;;;;0.52;0.52;;;;;;;;;;5090786;28;20056;-80
2024/01/02 10:13:38;;;;;;;0.10;0.10;;;;;;;;;;5097162;28;20056;-81
2024/01/02 10:16:25;;;;;;;0.15;0.15;;;;;;;;;;5091270;28;20033;-81
2024/01/02 10:19:07;;;;;;;0.10;0.10;;;;;;;;;;5091403;28;20054;-80
2024/01/02 10:22:03;;;;;;;0.10;0.10;;;;;;;;;;5092515;28;20074;-81
2024/01/02 10:24:49;;;;;;;0.10;0.10;;;;;;;;;;5080175;28;20059;-81
2024/01/02 10:27:18;;;;;;;0.10;0.10;;;;;;;;;;5094493;28;20059;-81
2024/01/02 10:29:52;;;;;;;3.30;1.17;;;;;;;;;;5092019;28;20041;-81
2024/01/02 10:32:23;;;;;;;0.10;0.10;;;;;;;;;;5091169;28;20052;-81
2024/01/02 10:35:04;;;;;;;0.10;0.10;;;;;;;;;;5086273;28;20053;-80
2024/01/02 10:37:35;;;;;;;0.20;0.15;;;;;;;;;;5090553;28;20063;-80
2024/01/02 10:40:07;;;;;;;0.10;0.10;;;;;;;;;;5082784;28;20053;-81
2024/01/02 10:42:47;;;;;;;0.10;0.10;;;;;;;;;;5089225;28;20138;-81
2024/01/02 10:45:20;;;;;;;0.10;0.10;;;;;;;;;;5090986;28;20064;-81
2024/01/02 10:48:10;;;;;;;0.10;0.10;;;;;;;;;;5098706;28;20052;-80
2024/01/02 10:50:57;;;;;;;0.40;0.40;;;;;;;;;;5081464;28;20063;-81
2024/01/02 10:53:23;;;;;;;0.10;0.10;;;;;;;;;;5084007;28;20091;-81
2024/01/02 10:55:52;;;;;;;0.10;0.10;;;;;;;;;;5089594;28;20059;-82
2024/01/02 10:58:28;;;;;;;0.10;0.10;;;;;;;;;;5092573;28;20048;-84
2024/01/02 11:01:02;;;;;;;0.10;0.10;;;;;;;;;;5092728;28;20036;-84
2024/01/02 11:03:30;;;;;;;0.10;0.10;;;;;;;;;;5098202;28;20059;-81
2024/01/02 11:06:05;;;;;;;0.10;0.10;;;;;;;;;;5091222;28;20063;-81
2024/01/02 11:08:43;;;;;;;0.10;0.10;;;;;;;;;;5092928;28;20545;-82
2024/01/02 11:11:10;;;;;;;0.10;0.10;;;;;;;;;;5092581;28;20052;-81
2024/01/02 11:13:38;;;;;;;0.10;0.10;;;;;;;;;;5090648;28;20057;-82
2024/01/02 11:16:15;;;;;;;0.10;0.10;;;;;;;;;;5089886;28;20052;-83
2024/01/02 11:18:44;;;;;;;0.17;0.17;;;;;;;;;;5095633;28;20067;-83
2024/01/02 11:21:13;;;;;;;0.47;0.47;;;;;;;;;;5098665;28;20057;-82
2024/01/02 11:23:40;;;;;;;0.10;0.10;;;;;;;;;;5090408;28;20157;-84
2024/01/02 11:26:13;;;;;;;0.10;0.10;;;;;;;;;;5089877;28;20147;-83
2024/01/02 11:28:41;;;;;;;0.50;0.50;;;;;;;;;;5091212;28;20146;-82
2024/01/02 11:31:09;;;;;;;0.20;0.20;;;;;;;;;;5090480;28;20068;-82
2024/01/02 11:33:52;;;;;;;0.20;0.20;;;;;;;;;;5092316;27;20055;-82
2024/01/02 11:36:30;;;;;;;0.10;0.10;;;;;;;;;;5085872;28;20558;-82
2024/01/02 11:38:59;;;;;;;0.15;0.15;;;;;;;;;;5091582;28;20110;-83
2024/01/02 11:41:38;;;;;;;0.10;0.10;;;;;;;;;;5088091;28;20501;-82
2024/01/02 11:44:12;;;;;;;0.10;0.10;;;;;;;;;;5098592;27;20084;-83
2024/01/02 11:46:40;;;;;;;0.10;0.10;;;;;;;;;;5114111;22;20580;-86
2024/01/02 11:49:10;;;;;;;0.10;0.10;;;;;;;;;;5095851;28;20053;-83
2024/01/02 11:51:39;;;;;;;0.10;0.10;;;;;;;;;;5090345;28;20053;-81
2024/01/02 11:54:14;;;;;;;0.40;0.20;;;;;;;;;;5090394;28;20155;-85
2024/01/02 11:56:42;;;;;;;0.10;0.10;;;;;;;;;;5086991;28;20061;-83
2024/01/02 11:59:18;;;;;;;0.10;0.10;;;;;;;;;;5075282;28;20076;-82
2024/01/02 12:01:56;;;;;;;0.10;0.10;;;;;;;;;;5071184;28;20152;-83
2024/01/02 12:04:40;;;;;;;0.10;0.10;;;;;;;;;;5072484;28;20060;-83
2024/01/02 12:07:21;;;;;;;0.10;0.10;;;;;;;;;;5091444;28;20048;-84
2024/01/02 12:09:49;;;;;;;0.10;0.10;;;;;;;;;;5089521;28;20152;-85
2024/01/02 12:12:35;;;;;;;0.10;0.10;;;;;;;;;;5066870;28;20049;-84
2024/01/02 12:15:04;;;;;;;0.10;0.10;;;;;;;;;;5080794;28;20061;-84
2024/01/02 12:17:34;;;;;;;0.20;0.20;;;;;;;;;;5087723;28;20063;-87
2024/01/02 12:20:04;;;;;;;0.10;0.10;;;;;;;;;;5070750;28;20057;-84
2024/01/02 12:22:32;;;;;;;0.10;0.10;;;;;;;;;;5090803;28;20083;-85
2024/01/02 12:25:00;;;;;;;0.10;0.10;;;;;;;;;;5084527;28;20049;-87
2024/01/02 12:27:27;;;;;;;0.20;0.20;;;;;;;;;;5090468;28;20058;-84
2024/01/02 12:29:57;;;;;;;0.10;0.10;;;;;;;;;;5096393;28;20088;-84
2024/01/02 12:33:00;;;;;;;0.10;0.10;;;;;;;;;;5070840;28;20057;-84
2024/01/02 12:35:39;;;;;;;0.10;0.10;;;;;;;;;;5035540;28;20057;-85
2024/01/02 12:38:34;;;;;;;0.35;0.35;;;;;;;;;;5068450;28;20078;-85
2024/01/02 12:41:08;;;;;;;0.25;0.25;;;;;;;;;;5074667;28;20057;-85
2024/01/02 12:43:39;;;;;;;0.10;0.10;;;;;;;;;;5091480;28;20044;-85
2024/01/02 12:46:24;;;;;;;0.10;0.10;;;;;;;;;;5068572;28;20053;-84
2024/01/02 12:49:01;;;;;;;0.10;0.10;;;;;;;;;;5086898;28;21905;-84
2024/01/02 12:51:30;;;;;;;0.10;0.10;;;;;;;;;;5075466;28;20041;-84
2024/01/02 12:54:14;;;;;;;0.10;0.10;;;;;;;;;;5086732;28;20059;-84
2024/01/02 12:56:51;;;;;;;0.10;0.10;;;;;;;;;;5073890;28;20056;-85
2024/01/02 12:59:27;;;;;;;0.10;0.10;;;;;;;;;;5089917;28;20072;-84
2024/01/02 13:01:57;;;;;;;0.10;0.10;;;;;;;;;;5073624;28;20053;-85
2024/01/02 13:04:27;;;;;;;0.10;0.10;;;;;;;;;;5087219;28;20049;-84
2024/01/02 13:06:56;;;;;;;0.10;0.10;;;;;;;;;;5089463;28;20656;-84
2024/01/02 13:09:26;;;;;;;0.10;0.10;;;;;;;;;;5085137;28;20052;-86
2024/01/02 13:12:01;;;;;;;0.10;0.10;;;;;;;;;;5084852;28;20876;-87
2024/01/02 13:14:40;;;;;;;0.10;0.10;;;;;;;;;;5084702;28;20048;-83
2024/01/02 13:17:10;;;;;;;0.10;0.10;;;;;;;;;;5066024;28;20064;-83
2024/01/02 13:19:40;;;;;;;0.10;0.10;;;;;;;;;;5084832;28;20525;-83
2024/01/02 13:22:09;;;;;;;0.10;0.10;;;;;;;;;;5069358;28;20130;-84
2024/01/02 13:24:48;;;;;;;0.10;0.10;;;;;;;;;;5076999;28;20032;-86
2024/01/02 13:27:26;;;;;;;0.10;0.10;;;;;;;;;;5082375;28;20098;-83
2024/01/02 13:29:55;;;;;;;0.10;0.10;;;;;;;;;;5086313;28;20056;-83
2024/01/02 13:32:26;;;;;;;0.10;0.10;;;;;;;;;;5085823;28;20033;-82
2024/01/02 13:35:13;;;;;;;0.10;0.10;;;;;;;;;;5062897;28;20048;-82
2024/01/02 13:37:41;;;;;;;0.10;0.10;;;;;;;;;;5096176;28;20045;-85
2024/01/02 13:40:18;;;;;;;0.10;0.10;;;;;;;;;;5088499;28;20052;-84
2024/01/02 13:42:55;;;;;;;0.63;0.57;;;;;;;;;;5084686;28;20057;-83
2024/01/02 13:45:35;;;;;;;;;;;;;;;;;;5084048;28;20053;-84
2024/01/02 13:48:09;;;;;;;0.10;0.10;;;;;;;;;;5082676;28;43478;-84
2024/01/02 13:50:49;;;;;;;0.10;0.10;;;;;;;;;;5064412;28;20079;-83
2024/01/02 13:53:21;;;;;;;0.10;0.10;;;;;;;;;;5086851;28;20098;-83
2024/01/02 13:55:51;;;;;;;0.10;0.10;;;;;;;;;;5079784;28;20052;-85
2024/01/02 13:58:22;;;;;;;0.10;0.10;;;;;;;;;;5086910;28;20565;-83
2024/01/02 14:01:08;;;;;;;0.10;0.10;;;;;;;;;;5087088;28;20060;-83
2024/01/02 14:03:37;;;;;;;0.10;0.10;;;;;;;;;;5084439;28;20568;-84
2024/01/02 14:06:14;;;;;;;;;;;;;;;;;;;;;
2024/01/02 14:09:07;;;;;;;0.10;0.10;;;;;;;;;;5082934;28;20942;-84
2024/01/02 14:11:50;;;;;;;0.10;0.10;;;;;;;;;;5074212;28;20057;-84
2024/01/02 14:14:46;;;;;;;0.68;0.68;;;;;;;;;;5086920;28;20064;-85
2024/01/02 14:17:22;;;;;;;0.10;0.10;;;;;;;;;;5086748;28;20049;-84
2024/01/02 14:19:54;;;;;;;0.10;0.10;;;;;;;;;;5080672;28;20052;-83
2024/01/02 14:22:32;;;;;;;0.10;0.10;;;;;;;;;;5085994;28;20916;-84
2024/01/02 14:25:07;;;;;;;0.10;0.10;;;;;;;;;;5080969;28;20048;-83
2024/01/02 14:27:45;;;;;;;0.22;0.22;;;;;;;;;;5076695;28;20155;-87
2024/01/02 14:30:23;;;;;;;0.10;0.10;;;;;;;;;;5085708;28;20499;-84
2024/01/02 14:32:50;;;;;;;0.10;0.10;;;;;;;;;;5081975;28;20075;-84
2024/01/02 14:35:25;;;;;;;0.10;0.10;;;;;;;;;;5082327;28;20048;-85
2024/01/02 14:38:07;;;;;;;0.10;0.10;;;;;;;;;;5086724;28;20098;-84
2024/01/02 14:40:45;;;;;;;0.10;0.10;;;;;;;;;;5085266;28;20053;-83
2024/01/02 14:43:27;;;;;;;0.10;0.10;;;;;;;;;;5083705;28;20084;-83
2024/01/02 14:46:01;;;;;;;0.10;0.10;;;;;;;;;;5089172;28;20063;-83
2024/01/02 14:48:39;;;;;;;0.45;0.45;;;;;;;;;;5071723;28;20102;-83
2024/01/02 14:51:40;;;;;;;0.20;0.20;;;;;;;;;;5087296;28;20053;-84
2024/01/02 14:54:21;;;;;;;0.30;0.30;;;;;;;;;;5088859;28;20127;-84
2024/01/02 14:56:51;;;;;;;0.40;0.40;;;;;;;;;;5085337;28;20053;-85
2024/01/02 14:59:18;;;;;;;0.10;0.10;;;;;;;;;;5084939;28;20503;-84